sensor_id;sensor_type;location;lat;lon;timestamp;pressure;altitude;pressure_sealevel;temperature;humidity
85266;BME280;75676;49.522;19.724;2024-03-07T00:00:44;94095.22;;;-0.38;93.91
85266;BME280;75676;49.522;19.724;2024-03-07T00:03:30;94093.66;;;-0.43;94.43
85266;BME280;75676;49.522;19.724;2024-03-07T00:05:55;94090.34;;;-0.44;93.77
85266;BME280;75676;49.522;19.724;2024-03-07T00:08:22;94085.53;;;-0.42;94.13
85266;BME280;75676;49.522;19.724;2024-03-07T00:10:48;94092.19;;;-0.44;94.32
85266;BME280;75676;49.522;19.724;2024-03-07T00:13:14;94084.06;;;-0.39;94.59
85266;BME280;75676;49.522;19.724;2024-03-07T00:15:40;94087.75;;;-0.44;94.41
85266;BME280;75676;49.522;19.724;2024-03-07T00:18:07;94092.22;;;-0.40;94.26
85266;BME280;75676;49.522;19.724;2024-03-07T00:20:32;94091.47;;;-0.41;94.40
85266;BME280;75676;49.522;19.724;2024-03-07T00:22:58;94088.19;;;-0.34;94.52
85266;BME280;75676;49.522;19.724;2024-03-07T00:25:24;94095.63;;;-0.33;93.74
85266;BME280;75676;49.522;19.724;2024-03-07T00:27:50;94089.69;;;-0.33;94.19
85266;BME280;75676;49.522;19.724;2024-03-07T00:30:18;94088.66;;;-0.22;93.54
85266;BME280;75676;49.522;19.724;2024-03-07T00:32:46;94089.72;;;-0.26;93.55
85266;BME280;75676;49.522;19.724;2024-03-07T00:35:12;94084.78;;;-0.42;93.84
85266;BME280;75676;49.522;19.724;2024-03-07T00:37:38;94085.84;;;-0.47;93.94
85266;BME280;75676;49.522;19.724;2024-03-07T00:40:04;94082.88;;;-0.49;94.40
85266;BME280;75676;49.522;19.724;2024-03-07T00:42:31;94079.22;;;-0.40;94.98
85266;BME280;75676;49.522;19.724;2024-03-07T00:44:57;94081.38;;;-0.50;94.81
85266;BME280;75676;49.522;19.724;2024-03-07T00:47:23;94082.25;;;-0.35;95.19
85266;BME280;75676;49.522;19.724;2024-03-07T00:49:49;94081.41;;;-0.46;94.63
85266;BME280;75676;49.522;19.724;2024-03-07T00:52:15;94074.69;;;-0.51;95.14
85266;BME280;75676;49.522;19.724;2024-03-07T00:54:41;94076.19;;;-0.50;95.24
85266;BME280;75676;49.522;19.724;2024-03-07T00:57:08;94069.53;;;-0.47;95.50
85266;BME280;75676;49.522;19.724;2024-03-07T00:59:34;94068.69;;;-0.58;95.31
85266;BME280;75676;49.522;19.724;2024-03-07T01:02:00;94061.31;;;-0.53;95.43
85266;BME280;75676;49.522;19.724;2024-03-07T01:04:26;94058.72;;;-0.53;95.18
85266;BME280;75676;49.522;19.724;2024-03-07T01:06:59;94067.59;;;-0.57;95.12
85266;BME280;75676;49.522;19.724;2024-03-07T01:09:26;94053.13;;;-0.58;94.39
85266;BME280;75676;49.522;19.724;2024-03-07T01:11:54;94062.00;;;-0.63;94.82
85266;BME280;75676;49.522;19.724;2024-03-07T01:14:21;94062.41;;;-0.54;94.18
85266;BME280;75676;49.522;19.724;2024-03-07T01:16:47;94063.56;;;-0.51;94.30
85266;BME280;75676;49.522;19.724;2024-03-07T01:19:13;94062.13;;;-0.45;93.73
85266;BME280;75676;49.522;19.724;2024-03-07T01:21:40;94055.84;;;-0.44;93.75
85266;BME280;75676;49.522;19.724;2024-03-07T01:24:06;94058.78;;;-0.49;93.20
85266;BME280;75676;49.522;19.724;2024-03-07T01:26:32;94061.63;;;-0.61;93.75
85266;BME280;75676;49.522;19.724;2024-03-07T01:29:01;94054.25;;;-0.56;93.51
85266;BME280;75676;49.522;19.724;2024-03-07T01:31:27;94046.00;;;-0.68;93.14
85266;BME280;75676;49.522;19.724;2024-03-07T01:33:53;94043.75;;;-0.70;94.06
85266;BME280;75676;49.522;19.724;2024-03-07T01:36:20;94047.91;;;-0.62;94.02
85266;BME280;75676;49.522;19.724;2024-03-07T01:38:48;94047.09;;;-0.69;93.86
85266;BME280;75676;49.522;19.724;2024-03-07T01:41:14;94048.22;;;-0.70;93.60
85266;BME280;75676;49.522;19.724;2024-03-07T01:43:42;94047.09;;;-0.69;94.14
85266;BME280;75676;49.522;19.724;2024-03-07T01:46:09;94047.94;;;-0.58;93.82
85266;BME280;75676;49.522;19.724;2024-03-07T01:48:36;94045.72;;;-0.60;93.83
85266;BME280;75676;49.522;19.724;2024-03-07T01:51:03;94043.06;;;-0.67;93.65
85266;BME280;75676;49.522;19.724;2024-03-07T01:53:32;94045.31;;;-0.62;93.76
85266;BME280;75676;49.522;19.724;2024-03-07T01:55:59;94036.44;;;-0.57;93.79
85266;BME280;75676;49.522;19.724;2024-03-07T01:58:26;94044.91;;;-0.67;93.31
85266;BME280;75676;49.522;19.724;2024-03-07T02:00:52;94040.47;;;-0.67;93.83
85266;BME280;75676;49.522;19.724;2024-03-07T02:03:17;94044.47;;;-0.76;93.84
85266;BME280;75676;49.522;19.724;2024-03-07T02:05:44;94041.91;;;-0.69;94.10
85266;BME280;75676;49.522;19.724;2024-03-07T02:08:10;94038.56;;;-0.70;94.57
85266;BME280;75676;49.522;19.724;2024-03-07T02:13:11;94043.44;;;-0.65;94.25
85266;BME280;75676;49.522;19.724;2024-03-07T02:15:38;94037.91;;;-0.60;94.06
85266;BME280;75676;49.522;19.724;2024-03-07T02:18:03;94044.91;;;-0.64;93.57
85266;BME280;75676;49.522;19.724;2024-03-07T02:20:29;94035.94;;;-0.77;93.41
85266;BME280;75676;49.522;19.724;2024-03-07T02:22:55;94034.16;;;-0.66;93.87
85266;BME280;75676;49.522;19.724;2024-03-07T02:25:21;94029.31;;;-0.71;94.02
85266;BME280;75676;49.522;19.724;2024-03-07T02:27:47;94034.09;;;-0.73;93.93
85266;BME280;75676;49.522;19.724;2024-03-07T02:30:13;94041.06;;;-0.80;93.74
85266;BME280;75676;49.522;19.724;2024-03-07T02:32:40;94036.28;;;-0.75;93.87
85266;BME280;75676;49.522;19.724;2024-03-07T02:35:06;94039.31;;;-0.69;93.44
85266;BME280;75676;49.522;19.724;2024-03-07T02:37:32;94031.91;;;-0.71;93.58
85266;BME280;75676;49.522;19.724;2024-03-07T02:39:58;94039.69;;;-0.71;93.71
85266;BME280;75676;49.522;19.724;2024-03-07T02:42:25;94029.31;;;-0.71;93.52
85266;BME280;75676;49.522;19.724;2024-03-07T02:44:51;94036.38;;;-0.68;93.79
85266;BME280;75676;49.522;19.724;2024-03-07T02:47:18;94030.75;;;-0.73;93.82
85266;BME280;75676;49.522;19.724;2024-03-07T02:49:44;94027.03;;;-0.76;93.74
85266;BME280;75676;49.522;19.724;2024-03-07T02:52:10;94037.03;;;-0.78;93.73
85266;BME280;75676;49.522;19.724;2024-03-07T02:54:36;94027.41;;;-0.77;93.21
85266;BME280;75676;49.522;19.724;2024-03-07T02:57:02;94038.84;;;-0.82;93.30
85266;BME280;75676;49.522;19.724;2024-03-07T02:59:28;94038.53;;;-0.77;93.90
85266;BME280;75676;49.522;19.724;2024-03-07T03:01:54;94041.06;;;-0.80;93.95
85266;BME280;75676;49.522;19.724;2024-03-07T03:04:21;94042.94;;;-0.81;93.68
85266;BME280;75676;49.522;19.724;2024-03-07T03:06:47;94047.06;;;-0.73;93.57
85266;BME280;75676;49.522;19.724;2024-03-07T03:09:13;94036.72;;;-0.69;93.46
85266;BME280;75676;49.522;19.724;2024-03-07T03:11:44;94033.69;;;-0.75;93.32
85266;BME280;75676;49.522;19.724;2024-03-07T03:14:11;94035.41;;;-0.93;93.70
85266;BME280;75676;49.522;19.724;2024-03-07T03:16:41;94033.63;;;-0.86;93.37
85266;BME280;75676;49.522;19.724;2024-03-07T03:19:07;94038.44;;;-0.88;93.76
85266;BME280;75676;49.522;19.724;2024-03-07T03:21:34;94035.19;;;-0.77;93.70
85266;BME280;75676;49.522;19.724;2024-03-07T03:24:00;94032.16;;;-0.83;93.67
85266;BME280;75676;49.522;19.724;2024-03-07T03:26:28;94039.97;;;-0.79;93.78
85266;BME280;75676;49.522;19.724;2024-03-07T03:28:54;94032.59;;;-0.74;93.73
85266;BME280;75676;49.522;19.724;2024-03-07T03:31:19;94029.59;;;-0.79;93.70
85266;BME280;75676;49.522;19.724;2024-03-07T03:33:45;94034.81;;;-0.76;93.39
85266;BME280;75676;49.522;19.724;2024-03-07T03:36:11;94045.94;;;-0.75;93.42
85266;BME280;75676;49.522;19.724;2024-03-07T03:38:37;94042.63;;;-0.72;93.70
85266;BME280;75676;49.522;19.724;2024-03-07T03:41:03;94042.91;;;-0.85;93.11
85266;BME280;75676;49.522;19.724;2024-03-07T03:43:30;94038.47;;;-0.84;93.53
85266;BME280;75676;49.522;19.724;2024-03-07T03:45:56;94042.91;;;-0.85;93.27
85266;BME280;75676;49.522;19.724;2024-03-07T03:48:21;94043.56;;;-0.91;93.53
85266;BME280;75676;49.522;19.724;2024-03-07T03:50:47;94045.50;;;-0.85;93.84
85266;BME280;75676;49.522;19.724;2024-03-07T03:53:13;94040.22;;;-0.95;93.97
85266;BME280;75676;49.522;19.724;2024-03-07T03:55:39;94038.03;;;-0.93;93.96
85266;BME280;75676;49.522;19.724;2024-03-07T03:58:04;94040.28;;;-0.88;93.81
85266;BME280;75676;49.522;19.724;2024-03-07T04:00:33;94036.53;;;-0.94;94.00
85266;BME280;75676;49.522;19.724;2024-03-07T04:02:59;94025.81;;;-0.89;94.27
85266;BME280;75676;49.522;19.724;2024-03-07T04:05:25;94029.50;;;-0.94;93.91
85266;BME280;75676;49.522;19.724;2024-03-07T04:07:50;94026.88;;;-0.97;94.58
85266;BME280;75676;49.522;19.724;2024-03-07T04:10:17;94034.69;;;-0.94;94.47
85266;BME280;75676;49.522;19.724;2024-03-07T04:12:43;94038.72;;;-0.96;94.60
85266;BME280;75676;49.522;19.724;2024-03-07T04:15:12;94038.03;;;-0.90;94.14
85266;BME280;75676;49.522;19.724;2024-03-07T04:17:42;94036.16;;;-0.93;94.13
85266;BME280;75676;49.522;19.724;2024-03-07T04:20:08;94051.00;;;-0.90;94.31
85266;BME280;75676;49.522;19.724;2024-03-07T04:22:36;94041.41;;;-0.86;94.47
85266;BME280;75676;49.522;19.724;2024-03-07T04:25:06;94045.16;;;-0.83;93.79
85266;BME280;75676;49.522;19.724;2024-03-07T04:27:33;94045.03;;;-0.97;93.57
85266;BME280;75676;49.522;19.724;2024-03-07T04:30:03;94040.94;;;-0.98;93.77
85266;BME280;75676;49.522;19.724;2024-03-07T04:32:30;94042.94;;;-0.81;93.79
85266;BME280;75676;49.522;19.724;2024-03-07T04:34:56;94046.97;;;-0.87;93.50
85266;BME280;75676;49.522;19.724;2024-03-07T04:37:26;94043.97;;;-0.93;93.86
85266;BME280;75676;49.522;19.724;2024-03-07T04:39:53;94048.75;;;-0.95;93.83
85266;BME280;75676;49.522;19.724;2024-03-07T04:42:19;94045.03;;;-0.97;93.98
85266;BME280;75676;49.522;19.724;2024-03-07T04:44:44;94053.13;;;-1.02;93.95
85266;BME280;75676;49.522;19.724;2024-03-07T04:47:10;94053.50;;;-1.00;93.60
85266;BME280;75676;49.522;19.724;2024-03-07T04:49:36;94060.44;;;-1.11;93.85
85266;BME280;75676;49.522;19.724;2024-03-07T04:52:03;94061.91;;;-1.14;93.85
85266;BME280;75676;49.522;19.724;2024-03-07T04:54:30;94058.59;;;-1.11;93.97
85266;BME280;75676;49.522;19.724;2024-03-07T04:56:57;94058.28;;;-1.06;93.84
85266;BME280;75676;49.522;19.724;2024-03-07T04:59:23;94057.88;;;-1.08;94.14
85266;BME280;75676;49.522;19.724;2024-03-07T05:01:49;94056.03;;;-1.07;93.88
85266;BME280;75676;49.522;19.724;2024-03-07T05:04:17;94061.28;;;-1.04;93.65
85266;BME280;75676;49.522;19.724;2024-03-07T05:06:43;94060.84;;;-1.09;93.80
85266;BME280;75676;49.522;19.724;2024-03-07T05:09:10;94058.94;;;-1.12;93.91
85266;BME280;75676;49.522;19.724;2024-03-07T05:11:48;94061.19;;;-1.11;94.16
85266;BME280;75676;49.522;19.724;2024-03-07T05:14:15;94057.00;;;-1.22;93.87
85266;BME280;75676;49.522;19.724;2024-03-07T05:16:41;94057.72;;;-1.25;93.69
85266;BME280;75676;49.522;19.724;2024-03-07T05:19:09;94058.47;;;-1.25;93.82
85266;BME280;75676;49.522;19.724;2024-03-07T05:21:35;94054.47;;;-1.19;93.91
85266;BME280;75676;49.522;19.724;2024-03-07T05:24:07;94063.97;;;-1.30;94.22
85266;BME280;75676;49.522;19.724;2024-03-07T05:26:34;94059.47;;;-1.37;94.29
85266;BME280;75676;49.522;19.724;2024-03-07T05:29:03;94057.22;;;-1.38;94.17
85266;BME280;75676;49.522;19.724;2024-03-07T05:31:37;94061.66;;;-1.39;94.25
85266;BME280;75676;49.522;19.724;2024-03-07T05:34:04;94059.47;;;-1.37;94.27
85266;BME280;75676;49.522;19.724;2024-03-07T05:36:36;94063.22;;;-1.31;94.00
85266;BME280;75676;49.522;19.724;2024-03-07T05:39:02;94069.09;;;-1.34;94.41
85266;BME280;75676;49.522;19.724;2024-03-07T05:41:37;94065.81;;;-1.31;94.11
85266;BME280;75676;49.522;19.724;2024-03-07T05:44:03;94072.19;;;-1.24;94.41
85266;BME280;75676;49.522;19.724;2024-03-07T05:46:34;94069.16;;;-1.30;94.23
85266;BME280;75676;49.522;19.724;2024-03-07T05:49:00;94067.22;;;-1.37;94.69
85266;BME280;75676;49.522;19.724;2024-03-07T05:51:26;94072.88;;;-1.28;94.71
85266;BME280;75676;49.522;19.724;2024-03-07T05:53:53;94076.19;;;-1.31;94.64
85266;BME280;75676;49.522;19.724;2024-03-07T05:56:19;94064.41;;;-1.24;95.05
85266;BME280;75676;49.522;19.724;2024-03-07T05:58:45;94071.88;;;-1.19;94.84
85266;BME280;75676;49.522;19.724;2024-03-07T06:01:11;94079.53;;;-1.30;95.09
85266;BME280;75676;49.522;19.724;2024-03-07T06:03:37;94078.06;;;-1.28;95.24
85266;BME280;75676;49.522;19.724;2024-03-07T06:06:03;94082.16;;;-1.27;95.10
85266;BME280;75676;49.522;19.724;2024-03-07T06:08:32;94079.88;;;-1.32;94.97
85266;BME280;75676;49.522;19.724;2024-03-07T06:10:58;94084.75;;;-1.27;95.03
85266;BME280;75676;49.522;19.724;2024-03-07T06:13:24;94077.31;;;-1.28;95.23
85266;BME280;75676;49.522;19.724;2024-03-07T06:15:51;94078.38;;;-1.33;95.59
85266;BME280;75676;49.522;19.724;2024-03-07T06:18:17;94082.13;;;-1.30;95.13
85266;BME280;75676;49.522;19.724;2024-03-07T06:20:43;94088.47;;;-1.24;94.90
85266;BME280;75676;49.522;19.724;2024-03-07T06:23:10;94093.03;;;-1.14;95.29
85266;BME280;75676;49.522;19.724;2024-03-07T06:25:37;94094.88;;;-1.14;95.00
85266;BME280;75676;49.522;19.724;2024-03-07T06:28:13;94097.16;;;-1.09;94.58
85266;BME280;75676;49.522;19.724;2024-03-07T06:30:41;94097.09;;;-1.16;94.66
85266;BME280;75676;49.522;19.724;2024-03-07T06:33:08;94098.97;;;-1.13;94.49
85266;BME280;75676;49.522;19.724;2024-03-07T06:35:35;94092.19;;;-1.25;94.75
85266;BME280;75676;49.522;19.724;2024-03-07T06:38:05;94094.41;;;-1.23;94.79
85266;BME280;75676;49.522;19.724;2024-03-07T06:40:32;94104.47;;;-1.18;94.79
85266;BME280;75676;49.522;19.724;2024-03-07T06:43:01;94097.09;;;-1.16;94.69
85266;BME280;75676;49.522;19.724;2024-03-07T06:45:29;94102.13;;;-1.31;94.99
85266;BME280;75676;49.522;19.724;2024-03-07T06:47:56;94095.84;;;-1.30;95.00
85266;BME280;75676;49.522;19.724;2024-03-07T06:50:22;94107.03;;;-1.22;94.87
85266;BME280;75676;49.522;19.724;2024-03-07T06:52:49;94106.28;;;-1.22;94.37
85266;BME280;75676;49.522;19.724;2024-03-07T06:55:18;94103.19;;;-1.35;94.50
85266;BME280;75676;49.522;19.724;2024-03-07T06:57:45;94105.38;;;-1.37;94.86
85266;BME280;75676;49.522;19.724;2024-03-07T07:00:15;94108.31;;;-1.39;95.27
85266;BME280;75676;49.522;19.724;2024-03-07T07:02:48;94106.25;;;-1.26;95.27
85266;BME280;75676;49.522;19.724;2024-03-07T07:05:14;94100.94;;;-1.37;95.42
85266;BME280;75676;49.522;19.724;2024-03-07T07:07:47;94101.88;;;-1.18;94.97
85266;BME280;75676;49.522;19.724;2024-03-07T07:10:14;94104.13;;;-1.17;94.75
85266;BME280;75676;49.522;19.724;2024-03-07T07:12:49;94106.28;;;-1.22;94.63
85266;BME280;75676;49.522;19.724;2024-03-07T07:15:18;94103.97;;;-1.31;94.83
85266;BME280;75676;49.522;19.724;2024-03-07T07:17:44;94113.91;;;-1.37;95.10
85266;BME280;75676;49.522;19.724;2024-03-07T07:20:13;94114.97;;;-1.41;95.22
85266;BME280;75676;49.522;19.724;2024-03-07T07:22:43;94113.25;;;-1.30;95.18
85266;BME280;75676;49.522;19.724;2024-03-07T07:25:09;94113.38;;;-1.19;95.08
85266;BME280;75676;49.522;19.724;2024-03-07T07:27:48;94126.72;;;-1.17;94.58
85266;BME280;75676;49.522;19.724;2024-03-07T07:30:15;94114.03;;;-1.26;94.53
85266;BME280;75676;49.522;19.724;2024-03-07T07:32:42;94109.41;;;-1.40;94.58
85266;BME280;75676;49.522;19.724;2024-03-07T07:35:09;94112.72;;;-1.43;94.98
85266;BME280;75676;49.522;19.724;2024-03-07T07:37:48;94112.69;;;-1.46;95.54
85266;BME280;75676;49.522;19.724;2024-03-07T07:40:16;94111.31;;;-1.37;95.30
85266;BME280;75676;49.522;19.724;2024-03-07T07:42:46;94112.81;;;-1.36;95.10
85266;BME280;75676;49.522;19.724;2024-03-07T07:45:15;94108.53;;;-1.21;95.17
85266;BME280;75676;49.522;19.724;2024-03-07T07:47:42;94116.75;;;-1.45;95.61
85266;BME280;75676;49.522;19.724;2024-03-07T07:50:13;94114.09;;;-1.52;95.42
85266;BME280;75676;49.522;19.724;2024-03-07T07:52:44;94119.34;;;-1.45;95.53
85266;BME280;75676;49.522;19.724;2024-03-07T07:55:11;94122.97;;;-1.53;95.50
85266;BME280;75676;49.522;19.724;2024-03-07T07:57:44;94122.38;;;-1.40;95.70
85266;BME280;75676;49.522;19.724;2024-03-07T08:00:16;94125.03;;;-1.36;95.42
85266;BME280;75676;49.522;19.724;2024-03-07T08:02:56;94119.53;;;-1.31;95.54
85266;BME280;75676;49.522;19.724;2024-03-07T08:05:24;94123.88;;;-1.39;95.09
85266;BME280;75676;49.522;19.724;2024-03-07T08:07:51;94127.56;;;-1.40;95.40
85266;BME280;75676;49.522;19.724;2024-03-07T08:10:18;94134.34;;;-1.32;95.16
85266;BME280;75676;49.522;19.724;2024-03-07T08:12:45;94127.84;;;-1.48;95.49
85266;BME280;75676;49.522;19.724;2024-03-07T08:15:12;94130.97;;;-1.36;95.52
85266;BME280;75676;49.522;19.724;2024-03-07T08:17:40;94124.97;;;-1.40;95.17
85266;BME280;75676;49.522;19.724;2024-03-07T08:20:10;94125.38;;;-1.38;94.84
85266;BME280;75676;49.522;19.724;2024-03-07T08:22:41;94124.63;;;-1.38;94.83
85266;BME280;75676;49.522;19.724;2024-03-07T08:25:14;94131.22;;;-1.14;94.50
85266;BME280;75676;49.522;19.724;2024-03-07T08:27:44;94134.75;;;-1.30;94.70
85266;BME280;75676;49.522;19.724;2024-03-07T08:30:12;94137.19;;;-1.40;94.31
85266;BME280;75676;49.522;19.724;2024-03-07T08:32:54;94147.44;;;-1.51;94.49
85266;BME280;75676;49.522;19.724;2024-03-07T08:35:21;94142.69;;;-1.45;94.56
85266;BME280;75676;49.522;19.724;2024-03-07T08:37:49;94136.91;;;-1.35;94.60
85266;BME280;75676;49.522;19.724;2024-03-07T08:40:19;94140.22;;;-1.35;94.56
85266;BME280;75676;49.522;19.724;2024-03-07T08:42:52;94144.00;;;-1.29;94.17
85266;BME280;75676;49.522;19.724;2024-03-07T08:45:22;94140.28;;;-1.31;94.12
85266;BME280;75676;49.522;19.724;2024-03-07T08:47:49;94140.63;;;-1.33;94.61
85266;BME280;75676;49.522;19.724;2024-03-07T08:50:16;94140.09;;;-1.45;93.99
85266;BME280;75676;49.522;19.724;2024-03-07T08:52:47;94140.66;;;-1.29;94.39
85266;BME280;75676;49.522;19.724;2024-03-07T08:55:19;94140.34;;;-1.24;94.87
85266;BME280;75676;49.522;19.724;2024-03-07T08:57:45;94136.00;;;-1.16;94.33
85266;BME280;75676;49.522;19.724;2024-03-07T09:00:13;94136.03;;;-1.13;94.66
85266;BME280;75676;49.522;19.724;2024-03-07T09:02:53;94133.25;;;-1.31;94.60
85266;BME280;75676;49.522;19.724;2024-03-07T09:05:21;94135.22;;;-1.20;94.66
85266;BME280;75676;49.522;19.724;2024-03-07T09:07:48;94132.31;;;-1.15;94.32
85266;BME280;75676;49.522;19.724;2024-03-07T09:10:14;94134.13;;;-1.19;94.13
85266;BME280;75676;49.522;19.724;2024-03-07T09:12:41;94130.03;;;-1.20;94.07
85266;BME280;75676;49.522;19.724;2024-03-07T09:15:07;94124.84;;;-1.20;94.37
85266;BME280;75676;49.522;19.724;2024-03-07T09:17:36;94135.13;;;-1.28;94.29
85266;BME280;75676;49.522;19.724;2024-03-07T09:20:05;94140.63;;;-1.33;94.29
85266;BME280;75676;49.522;19.724;2024-03-07T09:22:32;94149.19;;;-1.29;94.38
85266;BME280;75676;49.522;19.724;2024-03-07T09:24:58;94140.72;;;-1.25;94.25
85266;BME280;75676;49.522;19.724;2024-03-07T09:27:24;94146.34;;;-1.20;93.97
85266;BME280;75676;49.522;19.724;2024-03-07T09:29:50;94145.06;;;-1.33;94.25
85266;BME280;75676;49.522;19.724;2024-03-07T09:32:17;94141.09;;;-1.23;94.20
85266;BME280;75676;49.522;19.724;2024-03-07T09:34:43;94143.22;;;-1.33;94.30
85266;BME280;75676;49.522;19.724;2024-03-07T09:37:09;94150.69;;;-1.28;94.21
85266;BME280;75676;49.522;19.724;2024-03-07T09:39:35;94148.38;;;-1.36;93.86
85266;BME280;75676;49.522;19.724;2024-03-07T09:42:02;94154.56;;;-1.44;94.62
85266;BME280;75676;49.522;19.724;2024-03-07T09:44:29;94157.75;;;-1.54;94.72
85266;BME280;75676;49.522;19.724;2024-03-07T09:46:57;94158.06;;;-1.59;94.61
85266;BME280;75676;49.522;19.724;2024-03-07T09:49:25;94164.78;;;-1.55;94.48
85266;BME280;75676;49.522;19.724;2024-03-07T09:51:55;94159.22;;;-1.57;94.75
85266;BME280;75676;49.522;19.724;2024-03-07T09:54:25;94168.13;;;-1.54;95.28
85266;BME280;75676;49.522;19.724;2024-03-07T09:56:53;94164.75;;;-1.58;95.25
85266;BME280;75676;49.522;19.724;2024-03-07T09:59:19;94167.47;;;-1.48;95.25
85266;BME280;75676;49.522;19.724;2024-03-07T10:01:50;94171.16;;;-1.49;94.88
85266;BME280;75676;49.522;19.724;2024-03-07T10:04:31;94176.88;;;-1.36;95.20
85266;BME280;75676;49.522;19.724;2024-03-07T10:07:03;94178.91;;;-1.52;94.76
85266;BME280;75676;49.522;19.724;2024-03-07T10:09:29;94174.94;;;-1.43;94.42
85266;BME280;75676;49.522;19.724;2024-03-07T10:11:58;94172.63;;;-1.51;94.87
85266;BME280;75676;49.522;19.724;2024-03-07T10:14:25;94184.31;;;-1.61;94.81
85266;BME280;75676;49.522;19.724;2024-03-07T10:16:53;94180.03;;;-1.50;95.16
85266;BME280;75676;49.522;19.724;2024-03-07T10:19:22;94184.09;;;-1.52;95.04
85266;BME280;75676;49.522;19.724;2024-03-07T10:21:48;94187.44;;;-1.52;94.70
85266;BME280;75676;49.522;19.724;2024-03-07T10:24:13;94185.34;;;-1.39;94.17
85266;BME280;75676;49.522;19.724;2024-03-07T10:26:40;94186.19;;;-1.32;94.23
85266;BME280;75676;49.522;19.724;2024-03-07T10:29:07;94187.34;;;-1.29;94.56
85266;BME280;75676;49.522;19.724;2024-03-07T10:31:37;94186.66;;;-1.26;94.68
85266;BME280;75676;49.522;19.724;2024-03-07T10:34:03;94187.03;;;-1.24;94.37
85266;BME280;75676;49.522;19.724;2024-03-07T10:36:33;94185.00;;;-1.08;94.18
85266;BME280;75676;49.522;19.724;2024-03-07T10:39:03;94189.69;;;-1.20;93.81
85266;BME280;75676;49.522;19.724;2024-03-07T10:41:45;94190.59;;;-1.36;93.73
85266;BME280;75676;49.522;19.724;2024-03-07T10:44:27;94184.97;;;-1.41;93.68
85266;BME280;75676;49.522;19.724;2024-03-07T10:46:55;94192.13;;;-1.31;94.34
85266;BME280;75676;49.522;19.724;2024-03-07T10:49:25;94191.78;;;-1.30;94.05
85266;BME280;75676;49.522;19.724;2024-03-07T10:54:48;94192.19;;;-1.28;93.47
85266;BME280;75676;49.522;19.724;2024-03-07T11:00:03;94187.69;;;-1.31;94.11
85266;BME280;75676;49.522;19.724;2024-03-07T11:02:48;94186.06;;;-1.42;94.28
85266;BME280;75676;49.522;19.724;2024-03-07T11:05:16;94186.72;;;-1.49;94.25
85266;BME280;75676;49.522;19.724;2024-03-07T11:07:43;94188.31;;;-1.41;94.43
85266;BME280;75676;49.522;19.724;2024-03-07T11:10:10;94189.28;;;-1.22;94.35
85266;BME280;75676;49.522;19.724;2024-03-07T11:12:39;94194.16;;;-1.17;94.52
85266;BME280;75676;49.522;19.724;2024-03-07T11:15:08;94189.72;;;-1.17;93.84
85266;BME280;75676;49.522;19.724;2024-03-07T11:17:44;94190.34;;;-1.27;94.26
85266;BME280;75676;49.522;19.724;2024-03-07T11:20:27;94199.13;;;-1.35;94.17
85266;BME280;75676;49.522;19.724;2024-03-07T11:22:54;94193.00;;;-1.50;94.61
85266;BME280;75676;49.522;19.724;2024-03-07T11:25:22;94187.44;;;-1.52;94.93
85266;BME280;75676;49.522;19.724;2024-03-07T11:27:54;94191.16;;;-1.49;95.13
85266;BME280;75676;49.522;19.724;2024-03-07T11:30:21;94187.50;;;-1.45;95.06
85266;BME280;75676;49.522;19.724;2024-03-07T11:32:49;94189.78;;;-1.40;94.51
85266;BME280;75676;49.522;19.724;2024-03-07T11:35:33;94193.06;;;-1.46;94.76
85266;BME280;75676;49.522;19.724;2024-03-07T11:38:02;94186.69;;;-1.52;95.15
85266;BME280;75676;49.522;19.724;2024-03-07T11:43:00;94181.63;;;-1.42;95.00
85266;BME280;75676;49.522;19.724;2024-03-07T11:45:31;94185.63;;;-1.48;95.41
85266;BME280;75676;49.522;19.724;2024-03-07T11:48:04;94178.06;;;-1.60;95.41
85266;BME280;75676;49.522;19.724;2024-03-07T11:50:36;94188.88;;;-1.54;94.97
85266;BME280;75676;49.522;19.724;2024-03-07T11:53:03;94183.03;;;-1.48;95.33
85266;BME280;75676;49.522;19.724;2024-03-07T11:55:33;94186.06;;;-1.42;95.06
85266;BME280;75676;49.522;19.724;2024-03-07T12:00:44;94188.69;;;-1.39;95.61
85266;BME280;75676;49.522;19.724;2024-03-07T12:03:13;94187.34;;;-1.29;94.89
85266;BME280;75676;49.522;19.724;2024-03-07T12:05:40;94181.91;;;-1.20;94.52
85266;BME280;75676;49.522;19.724;2024-03-07T12:08:07;94184.97;;;-1.11;94.65
85266;BME280;75676;49.522;19.724;2024-03-07T12:10:36;94183.03;;;-1.18;93.74
85266;BME280;75676;49.522;19.724;2024-03-07T12:13:03;94185.13;;;-1.31;94.34
85266;BME280;75676;49.522;19.724;2024-03-07T12:15:30;94176.06;;;-1.40;94.55
85266;BME280;75676;49.522;19.724;2024-03-07T12:17:56;94184.59;;;-1.40;94.65
85266;BME280;75676;49.522;19.724;2024-03-07T12:20:23;94183.66;;;-1.28;94.78
85266;BME280;75676;49.522;19.724;2024-03-07T12:23:02;94187.19;;;-1.40;94.99
85266;BME280;75676;49.522;19.724;2024-03-07T12:25:29;94190.13;;;-1.15;94.46
85266;BME280;75676;49.522;19.724;2024-03-07T12:28:07;94187.03;;;-1.24;94.70
85266;BME280;75676;49.522;19.724;2024-03-07T12:30:49;94187.47;;;-1.18;94.68
85266;BME280;75676;49.522;19.724;2024-03-07T12:33:16;94184.06;;;-1.26;94.59
85266;BME280;75676;49.522;19.724;2024-03-07T12:35:47;94189.84;;;-1.36;94.51
85266;BME280;75676;49.522;19.724;2024-03-07T12:38:15;94183.13;;;-1.41;94.38
85266;BME280;75676;49.522;19.724;2024-03-07T12:40:42;94194.31;;;-1.33;94.82
85266;BME280;75676;49.522;19.724;2024-03-07T12:43:19;94187.25;;;-1.36;94.97
85266;BME280;75676;49.522;19.724;2024-03-07T12:45:50;94187.78;;;-1.23;94.56
85266;BME280;75676;49.522;19.724;2024-03-07T12:48:20;94182.16;;;-1.29;94.78
85266;BME280;75676;49.522;19.724;2024-03-07T12:50:50;94185.59;;;-1.21;94.38
85266;BME280;75676;49.522;19.724;2024-03-07T12:53:22;94193.47;;;-1.14;94.44
85266;BME280;75676;49.522;19.724;2024-03-07T12:55:51;94188.94;;;-1.21;94.25
85266;BME280;75676;49.522;19.724;2024-03-07T12:58:17;94196.75;;;-1.17;94.65
85266;BME280;75676;49.522;19.724;2024-03-07T13:00:45;94192.63;;;-1.22;94.66
85266;BME280;75676;49.522;19.724;2024-03-07T13:03:11;94195.44;;;-1.04;94.08
85266;BME280;75676;49.522;19.724;2024-03-07T13:05:40;94189.19;;;-1.30;94.51
85266;BME280;75676;49.522;19.724;2024-03-07T13:08:10;94195.22;;;-1.22;94.55